createdAt,value
2022-10-06T00:01:45.414Z,3.60
2022-10-06T00:04:13.871Z,3.43
2022-10-06T00:06:42.450Z,3.90
2022-10-06T00:09:10.893Z,4.10
2022-10-06T00:11:39.306Z,3.70
2022-10-06T00:14:07.851Z,3.90
2022-10-06T00:16:36.268Z,4.20
2022-10-06T00:19:06.318Z,3.97
2022-10-06T00:21:34.852Z,3.83
2022-10-06T00:24:03.267Z,3.60
2022-10-06T00:26:31.776Z,3.67
2022-10-06T00:29:00.198Z,3.63
2022-10-06T00:31:28.804Z,3.83
2022-10-06T00:33:57.296Z,3.93
2022-10-06T00:36:28.356Z,3.57
2022-10-06T00:38:57.155Z,3.90
2022-10-06T00:41:25.582Z,4.13
2022-10-06T00:43:56.828Z,4.33
2022-10-06T00:46:30.122Z,4.07
2022-10-06T00:49:02.348Z,3.70
2022-10-06T00:51:33.132Z,3.83
2022-10-06T00:54:02.307Z,3.60
2022-10-06T00:56:30.863Z,3.73
2022-10-06T00:59:00.131Z,3.57
2022-10-06T01:01:29.562Z,3.67
2022-10-06T01:04:01.995Z,3.67
2022-10-06T01:06:42.295Z,3.63
2022-10-06T01:09:10.766Z,3.60
2022-10-06T01:11:39.266Z,3.30
2022-10-06T01:14:07.750Z,3.37
2022-10-06T01:16:38.647Z,3.30
2022-10-06T01:19:10.534Z,3.67
2022-10-06T01:21:43.457Z,3.40
2022-10-06T01:24:13.279Z,3.13
2022-10-06T01:26:44.178Z,3.40
2022-10-06T01:29:13.879Z,3.43
2022-10-06T01:31:42.463Z,3.20
2022-10-06T01:34:11.249Z,3.07
2022-10-06T01:36:41.426Z,3.80
2022-10-06T01:39:10.138Z,3.53
2022-10-06T01:41:39.907Z,3.50
2022-10-06T01:44:08.580Z,3.60
2022-10-06T01:46:37.140Z,3.47
2022-10-06T01:49:05.651Z,3.43
2022-10-06T01:51:34.094Z,3.70
2022-10-06T01:54:02.804Z,3.57
2022-10-06T01:56:31.214Z,3.20
2022-10-06T01:59:01.139Z,3.47
2022-10-06T02:01:29.591Z,3.20
2022-10-06T02:03:58.099Z,3.27
2022-10-06T02:06:26.703Z,3.83
2022-10-06T02:08:55.294Z,3.33
2022-10-06T02:11:23.715Z,3.53
2022-10-06T02:13:52.161Z,5.37
2022-10-06T02:16:22.112Z,9.83
2022-10-06T02:18:50.648Z,4.97
2022-10-06T02:21:21.041Z,4.23
2022-10-06T02:23:49.832Z,3.37
2022-10-06T02:26:18.971Z,3.13
2022-10-06T02:28:48.015Z,3.57
2022-10-06T02:31:16.748Z,3.87
2022-10-06T02:33:46.651Z,3.13
2022-10-06T02:36:16.700Z,3.37
2022-10-06T02:38:45.440Z,3.10
2022-10-06T02:41:13.919Z,3.03
2022-10-06T02:43:42.414Z,3.40
2022-10-06T02:46:13.267Z,3.13
2022-10-06T02:48:42.374Z,3.50
2022-10-06T02:51:15.492Z,3.23
2022-10-06T02:53:44.219Z,3.43
2022-10-06T02:56:16.121Z,3.57
2022-10-06T02:58:44.972Z,2.90
2022-10-06T03:01:15.096Z,3.10
2022-10-06T03:03:43.904Z,3.27
2022-10-06T03:06:22.849Z,2.60
2022-10-06T03:08:51.383Z,2.80
2022-10-06T03:11:21.083Z,3.07
2022-10-06T03:13:51.175Z,2.70
2022-10-06T03:16:20.949Z,3.00
2022-10-06T03:18:50.422Z,3.10
2022-10-06T03:21:21.493Z,2.70
2022-10-06T03:23:51.515Z,2.90
2022-10-06T03:26:22.531Z,2.60
2022-10-06T03:28:51.151Z,3.60
2022-10-06T03:31:19.638Z,3.30
2022-10-06T03:33:48.218Z,3.23
2022-10-06T03:36:20.435Z,3.10
2022-10-06T03:38:49.011Z,3.40
2022-10-06T03:41:19.200Z,3.20
2022-10-06T03:43:48.918Z,3.27
2022-10-06T03:46:19.911Z,3.30
2022-10-06T03:48:49.658Z,3.40
2022-10-06T03:51:22.084Z,3.23
2022-10-06T03:53:51.738Z,3.33
2022-10-06T03:56:22.236Z,3.53
2022-10-06T03:58:52.107Z,3.60
2022-10-06T04:01:26.114Z,3.30
2022-10-06T04:03:55.404Z,3.00
2022-10-06T04:06:26.060Z,3.40
2022-10-06T04:08:55.096Z,3.20
2022-10-06T04:11:24.821Z,3.50
2022-10-06T04:13:54.629Z,3.27
2022-10-06T04:16:24.289Z,3.10
2022-10-06T04:18:54.163Z,3.33
2022-10-06T04:21:36.625Z,3.13
2022-10-06T04:24:05.899Z,3.10
2022-10-06T04:26:36.626Z,3.00
2022-10-06T04:29:05.246Z,2.60
2022-10-06T04:31:36.299Z,2.70
2022-10-06T04:34:06.166Z,2.60
2022-10-06T04:36:38.212Z,3.53
2022-10-06T04:39:07.086Z,4.73
2022-10-06T04:41:37.225Z,11.47
2022-10-06T04:44:06.454Z,3.93
2022-10-06T04:46:44.527Z,3.20
2022-10-06T04:49:19.497Z,2.80
2022-10-06T04:51:50.275Z,3.23
2022-10-06T04:54:19.654Z,3.27
2022-10-06T04:56:48.320Z,3.40
2022-10-06T04:59:16.831Z,3.10
2022-10-06T05:01:45.337Z,2.90
2022-10-06T05:04:14.011Z,3.23
2022-10-06T05:06:43.547Z,3.20
2022-10-06T05:09:15.839Z,4.57
2022-10-06T05:11:44.517Z,5.63
2022-10-06T05:14:14.531Z,4.50
2022-10-06T05:16:43.207Z,3.87
2022-10-06T05:19:11.927Z,4.33
2022-10-06T05:21:40.609Z,3.53
2022-10-06T05:24:13.487Z,3.70
2022-10-06T05:26:41.898Z,3.10
2022-10-06T05:29:10.389Z,3.10
2022-10-06T05:31:40.447Z,8.80
2022-10-06T05:34:09.219Z,5.47
2022-10-06T05:36:37.663Z,4.50
2022-10-06T05:39:06.347Z,3.70
2022-10-06T05:41:37.842Z,3.33
2022-10-06T05:44:06.373Z,4.00
2022-10-06T05:46:35.302Z,4.03
2022-10-06T05:49:09.177Z,3.63
2022-10-06T05:51:38.879Z,3.60
2022-10-06T05:54:07.813Z,3.70
2022-10-06T05:56:38.812Z,5.07
2022-10-06T05:59:07.567Z,4.10
2022-10-06T06:01:37.339Z,4.10
2022-10-06T06:04:06.948Z,4.37
2022-10-06T06:06:37.068Z,4.67
2022-10-06T06:09:07.965Z,4.80
2022-10-06T06:11:39.280Z,4.83
2022-10-06T06:14:09.071Z,4.50
2022-10-06T06:16:39.086Z,4.23
2022-10-06T06:19:11.151Z,4.70
2022-10-06T06:21:39.977Z,4.80
2022-10-06T06:24:08.662Z,4.50
2022-10-06T06:26:38.851Z,5.30
2022-10-06T06:29:07.445Z,5.10
2022-10-06T06:31:37.441Z,5.70
2022-10-06T06:34:07.259Z,5.70
2022-10-06T06:36:37.328Z,5.90
2022-10-06T06:39:07.816Z,6.50
2022-10-06T06:41:39.580Z,6.57
2022-10-06T06:44:11.400Z,5.53
2022-10-06T06:46:40.727Z,5.20
2022-10-06T06:49:09.723Z,4.87
2022-10-06T06:51:40.434Z,4.43
2022-10-06T06:54:09.364Z,4.27
2022-10-06T06:56:40.170Z,5.10
2022-10-06T06:59:11.700Z,4.30
2022-10-06T07:01:44.584Z,8.50
2022-10-06T07:04:13.980Z,11.23
2022-10-06T07:06:44.716Z,8.10
2022-10-06T07:09:14.209Z,8.07
2022-10-06T07:11:44.023Z,17.23
2022-10-06T07:14:12.940Z,10.77
2022-10-06T07:16:59.060Z,21.13
2022-10-06T07:19:44.814Z,12.17
2022-10-06T07:22:34.445Z,7.47
2022-10-06T07:25:11.442Z,11.90
2022-10-06T07:27:43.460Z,15.07
2022-10-06T07:30:15.035Z,21.10
2022-10-06T07:32:43.531Z,17.13
2022-10-06T07:35:12.129Z,7.70
2022-10-06T07:37:40.755Z,5.50
2022-10-06T07:40:10.674Z,7.27
2022-10-06T07:42:52.285Z,15.13
2022-10-06T07:45:41.369Z,17.87
2022-10-06T07:48:14.400Z,11.67
2022-10-06T07:50:43.202Z,8.80
2022-10-06T07:53:11.929Z,6.60
2022-10-06T07:55:41.763Z,5.80
2022-10-06T07:58:15.517Z,5.37
2022-10-06T08:00:44.307Z,5.13
2022-10-06T08:03:15.007Z,5.07
2022-10-06T08:05:43.565Z,4.60
2022-10-06T08:08:11.995Z,6.83
2022-10-06T08:10:40.976Z,5.27
2022-10-06T08:13:10.347Z,5.80
2022-10-06T08:15:40.212Z,5.20
2022-10-06T08:18:21.349Z,4.93
2022-10-06T08:20:55.918Z,4.27
2022-10-06T08:23:24.400Z,5.00
2022-10-06T08:25:54.291Z,4.70
2022-10-06T08:28:24.452Z,5.23
2022-10-06T08:30:55.475Z,4.80
2022-10-06T08:33:23.922Z,22.83
2022-10-06T08:35:52.717Z,59.13
2022-10-06T08:38:21.844Z,18.63
2022-10-06T08:40:50.590Z,44.47
2022-10-06T08:43:23.125Z,13.27
2022-10-06T08:48:36.855Z,20.47
2022-10-06T08:51:15.242Z,45.50
2022-10-06T08:53:49.066Z,34.93
2022-10-06T08:56:21.755Z,31.50
2022-10-06T08:58:54.118Z,15.50
2022-10-06T09:01:26.309Z,19.20
2022-10-06T09:03:58.067Z,13.97
2022-10-06T09:06:39.205Z,7.03
2022-10-06T09:09:14.918Z,14.27
2022-10-06T09:11:52.006Z,13.83
2022-10-06T09:14:24.474Z,6.57
2022-10-06T09:17:00.789Z,14.90
2022-10-06T09:19:38.140Z,5.57
2022-10-06T09:22:07.974Z,6.50
2022-10-06T09:24:43.605Z,5.37
2022-10-06T09:27:19.454Z,4.90
2022-10-06T09:29:49.267Z,4.70
2022-10-06T09:32:20.485Z,4.90
2022-10-06T09:34:51.912Z,5.37
2022-10-06T09:37:20.457Z,9.10
2022-10-06T09:39:50.891Z,8.73
2022-10-06T09:42:22.642Z,9.70
2022-10-06T09:44:57.645Z,10.83
2022-10-06T09:47:40.334Z,9.67
2022-10-06T09:50:17.481Z,13.90
2022-10-06T09:53:03.858Z,8.47
2022-10-06T09:55:35.277Z,4.10
2022-10-06T09:58:04.160Z,4.50
2022-10-06T10:00:34.742Z,4.47
2022-10-06T10:03:06.700Z,5.50
2022-10-06T10:05:37.596Z,6.13
2022-10-06T10:08:10.058Z,4.50
2022-10-06T10:10:39.653Z,4.30
2022-10-06T10:13:20.434Z,4.37
2022-10-06T10:15:54.887Z,4.70
2022-10-06T10:18:28.171Z,6.37
2022-10-06T10:20:58.704Z,7.40
2022-10-06T10:23:32.019Z,3.97
2022-10-06T10:26:26.800Z,4.13
2022-10-06T10:29:20.171Z,3.73
2022-10-06T10:31:57.146Z,3.43
2022-10-06T10:34:49.708Z,3.00
2022-10-06T10:37:21.912Z,3.13
2022-10-06T10:39:54.378Z,3.60
2022-10-06T10:42:28.695Z,3.53
2022-10-06T10:45:00.899Z,9.47
2022-10-06T10:47:31.904Z,9.00
2022-10-06T10:50:07.871Z,5.17
2022-10-06T10:52:41.414Z,3.10
2022-10-06T10:55:20.966Z,3.17
2022-10-06T10:57:51.410Z,3.53
2022-10-06T11:00:22.866Z,3.27
2022-10-06T11:02:53.689Z,3.20
2022-10-06T11:05:33.426Z,3.00
2022-10-06T11:08:06.363Z,3.20
2022-10-06T11:10:38.248Z,3.20
2022-10-06T11:13:16.297Z,3.23
2022-10-06T11:15:55.128Z,3.00
2022-10-06T11:18:32.458Z,3.23
2022-10-06T11:21:06.112Z,3.33
2022-10-06T11:23:58.847Z,4.57
2022-10-06T11:26:41.216Z,6.43
2022-10-06T11:29:16.980Z,3.80
2022-10-06T11:31:51.404Z,2.87
2022-10-06T11:34:20.001Z,2.90
2022-10-06T11:36:55.695Z,2.70
2022-10-06T11:39:27.495Z,2.60
2022-10-06T11:42:01.546Z,2.63
2022-10-06T11:44:37.036Z,2.80
2022-10-06T11:47:08.264Z,2.97
2022-10-06T11:49:39.381Z,2.70
2022-10-06T11:52:37.567Z,2.80
2022-10-06T11:55:13.311Z,2.30
2022-10-06T12:01:02.425Z,2.40
2022-10-06T12:04:05.096Z,7.80
2022-10-06T12:07:04.895Z,3.50
2022-10-06T12:09:52.772Z,2.80
2022-10-06T12:12:41.847Z,2.50
2022-10-06T12:18:25.988Z,2.30
2022-10-06T12:21:06.335Z,2.53
2022-10-06T12:23:44.799Z,2.30
2022-10-06T12:26:24.155Z,2.47
2022-10-06T12:28:55.620Z,2.43
2022-10-06T12:31:44.367Z,2.60
2022-10-06T12:34:44.334Z,2.70
2022-10-06T12:37:38.222Z,2.70
2022-10-06T12:40:44.202Z,2.50
2022-10-06T12:43:36.383Z,2.57
2022-10-06T12:46:11.636Z,2.60
2022-10-06T12:48:42.887Z,2.33
2022-10-06T12:51:23.615Z,2.50
2022-10-06T12:53:57.725Z,2.53
2022-10-06T12:56:29.515Z,2.67
2022-10-06T12:58:59.530Z,2.37
2022-10-06T13:01:28.464Z,2.43
2022-10-06T13:03:56.928Z,2.70
2022-10-06T13:06:26.555Z,2.50
2022-10-06T13:09:07.388Z,2.40
2022-10-06T13:11:36.063Z,2.57
2022-10-06T13:14:15.018Z,2.57
2022-10-06T13:16:46.182Z,2.33
2022-10-06T13:19:19.460Z,2.90
2022-10-06T13:21:48.155Z,2.20
2022-10-06T13:24:20.562Z,3.00
2022-10-06T13:26:49.710Z,2.80
2022-10-06T13:29:21.813Z,2.73
2022-10-06T13:31:52.940Z,2.70
2022-10-06T13:34:28.138Z,2.60
2022-10-06T13:36:57.034Z,2.40
2022-10-06T13:39:27.126Z,2.70
2022-10-06T13:41:57.426Z,2.60
2022-10-06T13:44:34.791Z,2.80
2022-10-06T13:47:05.631Z,2.83
2022-10-06T13:49:36.853Z,2.60
2022-10-06T13:52:15.245Z,2.63
2022-10-06T13:54:47.911Z,2.57
2022-10-06T13:57:36.748Z,2.73
2022-10-06T14:00:16.807Z,2.50
2022-10-06T14:02:47.111Z,2.87
2022-10-06T14:05:27.545Z,3.27
2022-10-06T14:07:58.223Z,3.47
2022-10-06T14:10:31.257Z,2.90
2022-10-06T14:13:01.529Z,2.80
2022-10-06T14:15:35.525Z,2.47
2022-10-06T14:18:06.167Z,2.60
2022-10-06T14:20:39.902Z,3.10
2022-10-06T14:23:33.482Z,3.10
2022-10-06T14:26:02.158Z,3.10
2022-10-06T14:28:30.644Z,2.67
2022-10-06T14:31:00.648Z,3.93
2022-10-06T14:33:29.202Z,2.93
2022-10-06T14:35:58.046Z,2.80
2022-10-06T14:38:26.769Z,3.53
2022-10-06T14:40:55.253Z,3.03
2022-10-06T14:43:23.783Z,3.20
2022-10-06T14:45:52.261Z,3.83
2022-10-06T14:48:22.414Z,4.50
2022-10-06T14:50:50.833Z,5.00
2022-10-06T14:53:19.272Z,3.70
2022-10-06T14:55:47.734Z,3.50
2022-10-06T14:58:16.177Z,3.10
2022-10-06T15:00:44.605Z,3.47
2022-10-06T15:03:13.140Z,3.00
2022-10-06T15:05:56.895Z,2.87
2022-10-06T15:08:25.979Z,2.93
2022-10-06T15:10:54.515Z,3.10
2022-10-06T15:13:23.002Z,3.10
2022-10-06T15:15:58.793Z,3.67
2022-10-06T15:18:27.467Z,3.60
2022-10-06T15:21:03.162Z,3.23
2022-10-06T15:23:31.841Z,3.40
2022-10-06T15:26:17.540Z,3.60
2022-10-06T15:29:04.350Z,3.07
2022-10-06T15:31:35.021Z,2.97
2022-10-06T15:34:05.451Z,3.40
2022-10-06T15:36:36.356Z,3.43
2022-10-06T15:39:06.643Z,3.43
2022-10-06T15:41:35.258Z,3.30
2022-10-06T15:44:04.287Z,3.33
2022-10-06T15:46:34.492Z,3.23
2022-10-06T15:49:04.452Z,3.23
2022-10-06T15:51:37.211Z,3.40
2022-10-06T15:54:05.957Z,3.37
2022-10-06T15:56:34.483Z,3.33
2022-10-06T15:59:02.922Z,3.27
2022-10-06T16:01:43.562Z,3.70
2022-10-06T16:04:25.987Z,4.10
2022-10-06T16:06:56.557Z,3.07
2022-10-06T16:09:26.720Z,3.00
2022-10-06T16:11:56.298Z,3.30
2022-10-06T16:14:25.236Z,3.40
2022-10-06T16:16:54.180Z,3.50
2022-10-06T16:19:22.587Z,3.90
2022-10-06T16:21:54.401Z,3.60
2022-10-06T16:24:28.194Z,3.40
2022-10-06T16:26:58.084Z,3.83
2022-10-06T16:29:26.954Z,3.60
2022-10-06T16:31:55.805Z,3.67
2022-10-06T16:34:25.431Z,3.50
2022-10-06T16:36:53.859Z,3.47
2022-10-06T16:39:23.566Z,3.47
2022-10-06T16:41:54.099Z,3.57
2022-10-06T16:44:22.610Z,4.00
2022-10-06T16:46:51.193Z,4.07
2022-10-06T16:49:19.856Z,4.67
2022-10-06T16:51:48.389Z,4.47
2022-10-06T16:54:18.259Z,6.10
2022-10-06T16:56:48.436Z,9.43
2022-10-06T16:59:19.568Z,8.53
2022-10-06T17:01:49.591Z,7.00
2022-10-06T17:04:20.007Z,6.00
2022-10-06T17:06:50.114Z,6.10
2022-10-06T17:09:20.167Z,6.23
2022-10-06T17:11:49.831Z,11.00
2022-10-06T17:14:21.260Z,17.13
2022-10-06T17:16:51.977Z,8.83
2022-10-06T17:19:21.960Z,7.83
2022-10-06T17:21:54.309Z,7.70
2022-10-06T17:24:28.027Z,6.90
2022-10-06T17:26:57.770Z,6.03
2022-10-06T17:29:27.765Z,6.17
2022-10-06T17:31:59.111Z,6.90
2022-10-06T17:34:32.508Z,6.07
2022-10-06T17:37:02.523Z,6.03
2022-10-06T17:39:31.136Z,6.18
2022-10-06T17:41:59.558Z,6.40
2022-10-06T17:44:31.251Z,5.90
2022-10-06T17:47:00.752Z,5.83
2022-10-06T17:49:30.480Z,6.60
2022-10-06T17:51:59.118Z,6.53
2022-10-06T17:54:28.809Z,6.37
2022-10-06T17:56:59.203Z,6.40
2022-10-06T17:59:30.500Z,6.80
2022-10-06T18:02:01.010Z,5.60
2022-10-06T18:04:29.865Z,5.30
2022-10-06T18:06:58.760Z,5.43
2022-10-06T18:09:27.175Z,5.60
2022-10-06T18:11:59.983Z,6.60
2022-10-06T18:14:33.522Z,6.97
2022-10-06T18:17:04.060Z,7.60
2022-10-06T18:19:34.842Z,7.43
2022-10-06T18:22:05.105Z,6.60
2022-10-06T18:24:33.553Z,8.33
2022-10-06T18:27:02.371Z,9.47
2022-10-06T18:29:33.626Z,11.40
2022-10-06T18:33:00.713Z,10.97
2022-10-06T18:37:40.407Z,9.80
2022-10-06T18:40:11.211Z,11.23
2022-10-06T18:42:39.851Z,10.13
2022-10-06T18:45:29.197Z,7.97
2022-10-06T18:48:15.047Z,8.00
2022-10-06T18:50:44.341Z,9.73
2022-10-06T18:53:13.048Z,9.07
2022-10-06T18:55:41.600Z,8.23
2022-10-06T18:58:10.133Z,8.10
2022-10-06T19:00:39.926Z,7.40
2022-10-06T19:03:08.334Z,7.57
2022-10-06T19:05:36.730Z,9.73
2022-10-06T19:08:05.882Z,9.77
2022-10-06T19:10:56.120Z,9.87
2022-10-06T19:13:24.903Z,7.57
2022-10-06T19:15:54.659Z,7.10
2022-10-06T19:18:23.147Z,7.30
2022-10-06T19:20:56.729Z,7.63
2022-10-06T19:23:25.276Z,7.97
2022-10-06T19:25:59.778Z,8.63
2022-10-06T19:28:30.240Z,8.77
2022-10-06T19:31:02.408Z,8.67
2022-10-06T19:33:31.587Z,8.20
2022-10-06T19:36:01.026Z,7.47
2022-10-06T19:38:29.858Z,7.07
2022-10-06T19:41:18.613Z,7.23
2022-10-06T19:43:46.041Z,7.20
2022-10-06T19:46:15.991Z,7.00
2022-10-06T19:48:44.548Z,7.73
2022-10-06T19:51:17.802Z,8.20
2022-10-06T19:53:49.747Z,8.00
2022-10-06T19:56:19.011Z,7.63
2022-10-06T19:58:47.465Z,7.13
2022-10-06T20:01:17.739Z,7.50
2022-10-06T20:03:46.646Z,8.10
2022-10-06T20:06:16.811Z,8.93
2022-10-06T20:08:45.222Z,10.13
2022-10-06T20:11:16.367Z,8.50
2022-10-06T20:13:45.497Z,7.80
2022-10-06T20:16:17.289Z,7.77
2022-10-06T20:18:50.514Z,7.07
2022-10-06T20:21:21.230Z,7.07
2022-10-06T20:23:50.314Z,6.80
2022-10-06T20:26:21.095Z,6.97
2022-10-06T20:28:50.540Z,6.87
2022-10-06T20:31:21.273Z,7.77
2022-10-06T20:33:51.405Z,7.20
2022-10-06T20:36:19.983Z,7.90
2022-10-06T20:39:05.709Z,7.30
2022-10-06T20:41:34.405Z,7.33
2022-10-06T20:44:03.476Z,7.00
2022-10-06T20:46:33.502Z,7.80
2022-10-06T20:49:05.159Z,7.57
2022-10-06T20:51:34.658Z,6.83
2022-10-06T20:54:04.239Z,6.90
2022-10-06T20:56:33.664Z,7.00
2022-10-06T20:59:02.330Z,6.57
2022-10-06T21:01:31.162Z,6.07
2022-10-06T21:03:59.545Z,6.23
2022-10-06T21:06:29.753Z,6.60
2022-10-06T21:08:58.585Z,5.70
2022-10-06T21:11:28.181Z,6.50
2022-10-06T21:13:57.281Z,7.80
2022-10-06T21:16:29.864Z,10.40
2022-10-06T21:18:58.586Z,14.97
2022-10-06T21:21:27.140Z,20.23
2022-10-06T21:23:57.010Z,26.90
2022-10-06T21:26:26.976Z,21.10
2022-10-06T21:28:56.145Z,14.83
2022-10-06T21:31:26.172Z,12.67
2022-10-06T21:33:55.606Z,8.83
2022-10-06T21:36:25.494Z,9.13
2022-10-06T21:38:56.663Z,7.07
2022-10-06T21:41:31.493Z,6.80
2022-10-06T21:44:01.243Z,31.47
2022-10-06T21:46:33.020Z,27.30
2022-10-06T21:49:02.950Z,13.17
2022-10-06T21:51:32.488Z,12.13
2022-10-06T21:54:03.207Z,7.90
2022-10-06T21:56:32.993Z,5.63
2022-10-06T21:59:01.836Z,5.60
2022-10-06T22:01:31.754Z,5.07
2022-10-06T22:04:01.197Z,4.93
2022-10-06T22:06:30.336Z,4.50
2022-10-06T22:08:59.477Z,4.80
2022-10-06T22:11:30.882Z,4.23
2022-10-06T22:14:00.947Z,4.00
2022-10-06T22:16:31.202Z,4.30
2022-10-06T22:19:00.087Z,4.23
2022-10-06T22:21:30.053Z,4.13
2022-10-06T22:24:00.097Z,3.80
2022-10-06T22:26:30.821Z,4.30
2022-10-06T22:29:00.828Z,4.33
2022-10-06T22:31:30.961Z,4.30
2022-10-06T22:34:01.393Z,4.80
2022-10-06T22:36:30.205Z,4.10
2022-10-06T22:38:58.886Z,4.10
2022-10-06T22:41:27.306Z,4.20
2022-10-06T22:43:58.545Z,4.40
2022-10-06T22:46:27.997Z,4.83
2022-10-06T22:48:56.975Z,5.33
2022-10-06T22:51:26.105Z,4.80
2022-10-06T22:53:57.880Z,4.33
2022-10-06T22:56:27.618Z,4.33
2022-10-06T22:58:59.594Z,5.03
2022-10-06T23:01:28.996Z,4.80
2022-10-06T23:03:57.921Z,4.50
2022-10-06T23:06:26.587Z,4.53
2022-10-06T23:08:55.232Z,4.20
2022-10-06T23:11:24.082Z,3.63
2022-10-06T23:13:53.148Z,4.43
2022-10-06T23:16:23.399Z,4.43
2022-10-06T23:18:52.100Z,4.20
2022-10-06T23:21:22.644Z,25.07
2022-10-06T23:23:55.101Z,25.20
2022-10-06T23:26:24.736Z,7.93
2022-10-06T23:28:54.242Z,5.50
2022-10-06T23:31:24.418Z,4.90
2022-10-06T23:33:53.045Z,4.90
2022-10-06T23:36:21.737Z,4.77
2022-10-06T23:38:50.269Z,4.40
2022-10-06T23:41:18.879Z,4.30
2022-10-06T23:43:47.295Z,4.27
2022-10-06T23:46:15.904Z,4.60
2022-10-06T23:48:45.793Z,4.63
2022-10-06T23:51:16.308Z,4.57
2022-10-06T23:53:45.334Z,4.67
2022-10-06T23:56:14.300Z,3.80
2022-10-06T23:58:42.886Z,3.60
